createdAt,value
2022-08-08T00:01:00.082Z,18.40
2022-08-08T00:03:49.096Z,18.50
2022-08-08T00:06:49.501Z,18.70
2022-08-08T00:09:44.620Z,18.60
2022-08-08T00:12:41.061Z,18.60
2022-08-08T00:15:57.625Z,18.50
2022-08-08T00:18:55.626Z,18.50
2022-08-08T00:21:51.137Z,18.40
2022-08-08T00:24:45.635Z,18.40
2022-08-08T00:27:37.106Z,18.50
2022-08-08T00:30:31.582Z,18.50
2022-08-08T00:33:24.120Z,18.40
2022-08-08T00:36:25.613Z,18.30
2022-08-08T00:41:06.061Z,18.40
2022-08-08T00:42:51.805Z,18.30
2022-08-08T00:46:05.185Z,18.30
2022-08-08T00:49:58.841Z,18.20
2022-08-08T00:52:57.274Z,18.30
2022-08-08T00:56:19.989Z,18.40
2022-08-08T00:59:46.781Z,18.40
2022-08-08T01:04:02.711Z,18.40
2022-08-08T01:07:55.310Z,18.30
2022-08-08T01:11:27.915Z,18.20
2022-08-08T01:15:11.507Z,18.20
2022-08-08T01:18:53.377Z,18.20
2022-08-08T01:22:23.568Z,18.30
2022-08-08T01:25:59.260Z,18.20
2022-08-08T01:29:59.760Z,18.10
2022-08-08T01:33:54.331Z,18.10
2022-08-08T01:37:56.881Z,18.00
2022-08-08T01:40:44.364Z,18.10
2022-08-08T01:43:45.605Z,18.00
2022-08-08T01:46:52.330Z,18.00
2022-08-08T01:49:59.580Z,17.90
2022-08-08T01:55:14.869Z,18.00
2022-08-08T01:56:28.417Z,18.00
2022-08-08T02:00:02.360Z,18.00
2022-08-08T02:03:55.984Z,17.90
2022-08-08T02:06:57.244Z,17.80
2022-08-08T02:10:11.642Z,17.90
2022-08-08T02:13:06.980Z,17.80
2022-08-08T02:16:05.304Z,17.70
2022-08-08T02:19:10.062Z,17.60
2022-08-08T02:22:52.690Z,17.60
2022-08-08T02:25:50.788Z,17.60
2022-08-08T02:28:54.917Z,17.70
2022-08-08T02:32:07.238Z,17.60
2022-08-08T02:35:19.438Z,17.70
2022-08-08T02:39:00.875Z,17.70
2022-08-08T02:42:38.255Z,17.70
2022-08-08T02:45:56.976Z,17.70
2022-08-08T02:49:27.414Z,17.70
2022-08-08T02:52:59.937Z,17.70
2022-08-08T02:56:27.378Z,17.80
2022-08-08T03:00:01.578Z,17.80
2022-08-08T03:05:03.637Z,17.80
2022-08-08T03:07:58.158Z,17.80
2022-08-08T03:11:25.691Z,17.60
2022-08-08T03:15:59.338Z,17.70
2022-08-08T03:18:14.359Z,17.60
2022-08-08T03:21:09.900Z,17.50
2022-08-08T03:24:05.119Z,17.40
2022-08-08T03:26:57.967Z,17.50
2022-08-08T03:29:55.959Z,17.60
2022-08-08T03:33:07.599Z,17.60
2022-08-08T03:36:27.718Z,17.50
2022-08-08T03:39:21.719Z,17.50
2022-08-08T03:42:27.472Z,17.50
2022-08-08T03:46:03.288Z,17.60
2022-08-08T03:49:10.097Z,17.60
2022-08-08T03:51:51.511Z,17.30
2022-08-08T03:55:02.646Z,17.40
2022-08-08T03:58:35.414Z,17.50
2022-08-08T04:01:23.298Z,17.50
2022-08-08T04:04:23.186Z,17.50
2022-08-08T04:07:21.332Z,17.60
2022-08-08T04:10:11.959Z,17.50
2022-08-08T04:13:08.273Z,17.50
2022-08-08T04:16:07.936Z,17.70
2022-08-08T04:19:04.369Z,17.60
2022-08-08T04:22:16.531Z,17.60
2022-08-08T04:25:06.750Z,17.70
2022-08-08T04:28:35.523Z,17.70
2022-08-08T04:31:09.407Z,17.70
2022-08-08T04:33:58.527Z,17.80
2022-08-08T04:36:47.254Z,18.00
2022-08-08T04:40:05.514Z,18.10
2022-08-08T04:42:46.757Z,18.10
2022-08-08T04:45:51.487Z,18.20
2022-08-08T04:48:40.121Z,18.20
2022-08-08T04:51:55.354Z,18.40
2022-08-08T04:54:40.136Z,18.40
2022-08-08T04:57:31.385Z,18.50
2022-08-08T05:00:25.189Z,18.70
2022-08-08T05:03:18.842Z,18.80
2022-08-08T05:06:27.955Z,18.80
2022-08-08T05:09:18.862Z,18.80
2022-08-08T05:12:09.516Z,19.00
2022-08-08T05:15:13.725Z,19.10
2022-08-08T05:18:02.569Z,19.20
2022-08-08T05:20:53.587Z,19.00
2022-08-08T05:23:46.124Z,19.20
2022-08-08T05:26:39.532Z,19.40
2022-08-08T05:29:29.352Z,19.60
2022-08-08T05:32:24.808Z,19.50
2022-08-08T05:35:23.394Z,19.70
2022-08-08T05:38:30.836Z,19.80
2022-08-08T05:41:28.211Z,20.00
2022-08-08T05:44:22.216Z,20.10
2022-08-08T05:47:22.110Z,20.00
2022-08-08T05:50:11.715Z,19.80
2022-08-08T05:53:54.641Z,19.90
2022-08-08T05:56:16.236Z,20.20
2022-08-08T05:59:12.678Z,20.40
2022-08-08T06:02:05.043Z,20.50
2022-08-08T06:05:00.245Z,20.70
2022-08-08T06:07:50.567Z,21.90
2022-08-08T06:10:41.188Z,23.10
2022-08-08T06:13:36.134Z,25.40
2022-08-08T06:16:33.536Z,26.30
2022-08-08T06:19:28.279Z,26.60
2022-08-08T06:22:37.526Z,25.30
2022-08-08T06:26:43.328Z,23.90
2022-08-08T06:28:54.161Z,22.90
2022-08-08T06:32:09.231Z,22.40
2022-08-08T06:35:34.975Z,22.00
2022-08-08T06:38:14.668Z,21.90
2022-08-08T06:41:13.323Z,22.10
2022-08-08T06:44:05.692Z,22.90
2022-08-08T06:47:02.333Z,24.00
2022-08-08T06:49:55.931Z,23.60
2022-08-08T06:52:50.467Z,23.30
2022-08-08T06:55:41.836Z,23.00
2022-08-08T06:58:33.283Z,22.70
2022-08-08T07:02:28.038Z,22.60
2022-08-08T07:04:52.175Z,22.50
2022-08-08T07:08:01.028Z,22.50
2022-08-08T07:10:59.084Z,22.70
2022-08-08T07:14:01.084Z,23.00
2022-08-08T07:17:09.257Z,23.00
2022-08-08T07:20:05.943Z,23.00
2022-08-08T07:23:04.746Z,23.10
2022-08-08T07:25:57.466Z,23.30
2022-08-08T07:28:47.999Z,23.40
2022-08-08T07:31:38.614Z,23.50
2022-08-08T07:34:32.523Z,23.70
2022-08-08T07:37:42.466Z,23.60
2022-08-08T07:40:40.109Z,23.60
2022-08-08T07:43:37.222Z,23.80
2022-08-08T07:46:30.914Z,23.60
2022-08-08T07:49:30.341Z,24.20
2022-08-08T07:52:26.712Z,24.00
2022-08-08T07:55:29.055Z,24.20
2022-08-08T07:58:30.469Z,24.40
2022-08-08T08:01:27.180Z,24.60
2022-08-08T08:04:19.397Z,24.70
2022-08-08T08:07:12.640Z,24.90
2022-08-08T08:10:05.330Z,24.80
2022-08-08T08:12:56.729Z,25.00
2022-08-08T08:15:45.598Z,24.80
2022-08-08T08:18:56.302Z,24.90
2022-08-08T08:21:57.770Z,25.30
2022-08-08T08:25:08.354Z,24.70
2022-08-08T08:27:59.927Z,24.90
2022-08-08T08:30:52.106Z,24.70
2022-08-08T08:33:43.587Z,24.30
2022-08-08T08:36:32.831Z,24.70
2022-08-08T08:39:23.716Z,25.20
2022-08-08T08:42:19.266Z,24.40
2022-08-08T08:45:23.246Z,24.10
2022-08-08T08:48:21.093Z,25.10
2022-08-08T08:51:14.432Z,25.50
2022-08-08T08:54:04.996Z,25.00
2022-08-08T08:56:58.124Z,24.90
2022-08-08T08:59:58.989Z,25.10
2022-08-08T09:02:54.518Z,25.10
2022-08-08T09:05:53.985Z,24.90
2022-08-08T09:08:52.003Z,24.30
2022-08-08T09:11:47.466Z,24.10
2022-08-08T09:14:57.020Z,23.70
2022-08-08T09:17:55.994Z,23.60
2022-08-08T09:22:00.536Z,24.20
2022-08-08T09:23:59.723Z,25.50
2022-08-08T09:26:58.210Z,26.90
2022-08-08T09:29:55.604Z,27.60
2022-08-08T09:32:50.476Z,27.10
2022-08-08T09:35:57.343Z,26.90
2022-08-08T09:38:55.198Z,28.30
2022-08-08T09:42:20.564Z,28.70
2022-08-08T09:45:15.817Z,29.40
2022-08-08T09:48:28.981Z,30.30
2022-08-08T09:51:41.573Z,29.70
2022-08-08T09:54:45.078Z,30.50
2022-08-08T09:57:46.000Z,30.70
2022-08-08T10:00:49.611Z,31.20
2022-08-08T10:03:43.395Z,32.50
2022-08-08T10:06:35.761Z,31.20
2022-08-08T10:09:58.928Z,32.50
2022-08-08T10:12:53.183Z,33.00
2022-08-08T10:16:00.729Z,32.10
2022-08-08T10:18:51.704Z,31.00
2022-08-08T10:21:51.247Z,30.80
2022-08-08T10:24:47.688Z,30.80
2022-08-08T10:27:43.232Z,31.20
2022-08-08T10:31:00.135Z,30.30
2022-08-08T10:34:18.680Z,30.90
2022-08-08T10:36:52.162Z,33.50
2022-08-08T10:39:54.822Z,34.90
2022-08-08T10:42:44.938Z,34.50
2022-08-08T10:45:57.111Z,33.70
2022-08-08T10:48:57.820Z,34.60
2022-08-08T10:51:51.508Z,33.40
2022-08-08T10:54:41.451Z,34.90
2022-08-08T10:57:41.481Z,35.70
2022-08-08T11:00:53.281Z,36.10
2022-08-08T11:04:02.083Z,35.80
2022-08-08T11:07:00.834Z,36.40
2022-08-08T11:09:50.189Z,37.40
2022-08-08T11:12:48.271Z,38.30
2022-08-08T11:15:52.400Z,38.30
2022-08-08T11:18:53.088Z,37.20
2022-08-08T11:21:54.290Z,37.50
2022-08-08T11:24:47.853Z,37.80
2022-08-08T11:27:38.748Z,38.00
2022-08-08T11:30:34.807Z,38.30
2022-08-08T11:33:51.576Z,37.70
2022-08-08T11:36:42.079Z,38.40
2022-08-08T11:39:36.779Z,37.90
2022-08-08T11:42:31.051Z,35.20
2022-08-08T11:45:23.646Z,37.50
2022-08-08T11:48:12.729Z,39.00
2022-08-08T11:51:30.582Z,39.70
2022-08-08T11:54:33.502Z,41.20
2022-08-08T11:57:27.565Z,40.80
2022-08-08T12:00:18.354Z,41.50
2022-08-08T12:03:16.983Z,41.00
2022-08-08T12:06:13.907Z,36.20
2022-08-08T12:09:07.903Z,34.10
2022-08-08T12:11:58.008Z,32.60
2022-08-08T12:14:54.613Z,31.00
2022-08-08T12:17:51.082Z,30.60
2022-08-08T12:20:41.754Z,30.10
2022-08-08T12:23:42.634Z,29.00
2022-08-08T12:26:41.786Z,28.90
2022-08-08T12:29:42.076Z,28.70
2022-08-08T12:32:42.643Z,29.40
2022-08-08T12:35:41.204Z,30.70
2022-08-08T12:38:48.857Z,29.30
2022-08-08T12:42:01.289Z,28.90
2022-08-08T12:44:50.381Z,28.50
2022-08-08T12:48:04.361Z,28.30
2022-08-08T12:50:49.453Z,27.50
2022-08-08T12:53:45.557Z,27.60
2022-08-08T12:56:36.845Z,27.60
2022-08-08T12:59:44.501Z,27.80
2022-08-08T13:02:37.985Z,27.90
2022-08-08T13:06:04.228Z,27.70
2022-08-08T13:08:53.618Z,27.50
2022-08-08T13:12:28.181Z,26.90
2022-08-08T13:15:06.445Z,27.00
2022-08-08T13:18:11.117Z,27.00
2022-08-08T13:21:00.681Z,26.90
2022-08-08T13:23:51.764Z,27.00
2022-08-08T13:26:44.748Z,27.00
2022-08-08T13:29:40.536Z,26.70
2022-08-08T13:32:35.429Z,26.90
2022-08-08T13:35:29.538Z,27.30
2022-08-08T13:38:28.235Z,26.90
2022-08-08T13:41:18.037Z,26.60
2022-08-08T13:44:10.988Z,26.60
2022-08-08T13:47:02.278Z,26.60
2022-08-08T13:50:36.385Z,26.60
2022-08-08T13:53:22.589Z,26.90
2022-08-08T13:56:13.491Z,26.40
2022-08-08T13:59:03.724Z,26.20
2022-08-08T14:02:01.465Z,26.30
2022-08-08T14:05:04.741Z,26.30
2022-08-08T14:08:01.782Z,26.30
2022-08-08T14:11:07.390Z,26.70
2022-08-08T14:14:05.988Z,26.50
2022-08-08T14:17:00.520Z,26.30
2022-08-08T14:19:57.107Z,25.90
2022-08-08T14:22:52.004Z,26.00
2022-08-08T14:25:47.230Z,25.70
2022-08-08T14:28:54.203Z,25.70
2022-08-08T14:32:09.344Z,25.70
2022-08-08T14:35:04.842Z,25.50
2022-08-08T14:37:59.660Z,25.70
2022-08-08T14:40:51.578Z,25.50
2022-08-08T14:44:10.068Z,25.30
2022-08-08T14:47:01.421Z,25.00
2022-08-08T14:50:06.164Z,25.20
2022-08-08T14:53:00.903Z,25.20
2022-08-08T14:55:52.696Z,25.20
2022-08-08T14:58:50.943Z,25.20
2022-08-08T15:01:41.218Z,25.10
2022-08-08T15:04:31.561Z,25.10
2022-08-08T15:07:24.426Z,25.10
2022-08-08T15:10:28.866Z,25.00
2022-08-08T15:13:17.817Z,25.00
2022-08-08T15:16:12.146Z,25.00
2022-08-08T15:19:04.821Z,25.00
2022-08-08T15:21:54.938Z,25.00
2022-08-08T15:24:43.454Z,24.70
2022-08-08T15:28:04.345Z,24.60
2022-08-08T15:30:48.695Z,24.70
2022-08-08T15:34:00.136Z,24.70
2022-08-08T15:36:47.941Z,24.90
2022-08-08T15:39:39.836Z,25.00
2022-08-08T15:42:33.072Z,25.10
2022-08-08T15:45:22.931Z,25.10
2022-08-08T15:48:16.259Z,25.10
2022-08-08T15:51:07.176Z,24.90
2022-08-08T15:53:55.902Z,24.80
2022-08-08T15:56:46.453Z,24.70
2022-08-08T16:00:25.372Z,24.70
2022-08-08T16:02:50.292Z,24.60
2022-08-08T16:05:53.512Z,24.50
2022-08-08T16:09:02.512Z,24.60
2022-08-08T16:13:09.180Z,24.50
2022-08-08T16:15:08.438Z,24.50
2022-08-08T16:18:11.766Z,24.60
2022-08-08T16:21:01.435Z,24.50
2022-08-08T16:23:55.389Z,24.50
2022-08-08T16:26:45.009Z,24.50
2022-08-08T16:30:08.754Z,24.50
2022-08-08T16:32:48.419Z,24.40
2022-08-08T16:35:38.267Z,24.40
2022-08-08T16:38:31.767Z,24.40
2022-08-08T16:41:22.563Z,24.40
2022-08-08T16:44:12.850Z,24.30
2022-08-08T16:47:16.467Z,24.20
2022-08-08T16:50:11.131Z,24.10
2022-08-08T16:55:06.600Z,24.10
2022-08-08T16:56:14.311Z,24.10
2022-08-08T16:59:04.141Z,24.10
2022-08-08T17:01:53.007Z,24.00
2022-08-08T17:04:43.050Z,23.90
2022-08-08T17:07:37.911Z,24.00
2022-08-08T17:10:29.335Z,23.80
2022-08-08T17:13:18.016Z,23.70
2022-08-08T17:16:07.341Z,23.60
2022-08-08T17:19:04.151Z,23.80
2022-08-08T17:21:54.488Z,23.60
2022-08-08T17:24:43.699Z,23.70
2022-08-08T17:27:47.449Z,23.70
2022-08-08T17:30:36.650Z,23.60
2022-08-08T17:34:36.437Z,23.60
2022-08-08T17:36:35.422Z,23.60
2022-08-08T17:40:04.944Z,23.50
2022-08-08T17:42:35.450Z,23.30
2022-08-08T17:45:24.531Z,23.40
2022-08-08T17:48:14.760Z,23.30
2022-08-08T17:51:18.360Z,23.20
2022-08-08T17:54:13.719Z,23.20
2022-08-08T17:57:12.087Z,23.10
2022-08-08T18:00:03.282Z,23.00
2022-08-08T18:03:07.934Z,23.10
2022-08-08T18:06:00.846Z,22.90
2022-08-08T18:08:51.260Z,22.90
2022-08-08T18:11:44.989Z,22.80
2022-08-08T18:14:41.515Z,22.90
2022-08-08T18:18:09.855Z,22.80
2022-08-08T18:20:54.414Z,22.70
2022-08-08T18:23:52.767Z,22.70
2022-08-08T18:26:46.594Z,22.50
2022-08-08T18:29:45.101Z,22.50
2022-08-08T18:32:37.105Z,22.50
2022-08-08T18:35:41.895Z,22.50
2022-08-08T18:38:37.875Z,22.50
2022-08-08T18:41:51.492Z,22.40
2022-08-08T18:44:36.326Z,22.40
2022-08-08T18:47:27.676Z,22.50
2022-08-08T18:50:16.544Z,22.50
2022-08-08T18:53:09.459Z,22.50
2022-08-08T18:56:00.433Z,22.40
2022-08-08T18:58:49.665Z,22.40
2022-08-08T19:02:25.391Z,22.40
2022-08-08T19:04:49.674Z,22.40
2022-08-08T19:07:40.349Z,22.50
2022-08-08T19:10:41.646Z,22.40
2022-08-08T19:13:47.303Z,22.30
2022-08-08T19:16:41.991Z,22.30
2022-08-08T19:19:31.523Z,22.30
2022-08-08T19:22:22.077Z,22.30
2022-08-08T19:26:01.341Z,22.50
2022-08-08T19:28:20.506Z,22.30
2022-08-08T19:31:10.001Z,22.30
2022-08-08T19:34:04.880Z,22.40
2022-08-08T19:37:16.384Z,22.20
2022-08-08T19:40:08.830Z,22.20
2022-08-08T19:43:03.391Z,22.20
2022-08-08T19:46:00.926Z,22.20
2022-08-08T19:48:49.937Z,22.10
2022-08-08T19:51:43.274Z,22.20
2022-08-08T19:54:32.399Z,22.10
2022-08-08T19:57:22.398Z,22.00
2022-08-08T20:00:29.237Z,22.10
2022-08-08T20:04:02.126Z,22.10
2022-08-08T20:06:29.252Z,22.00
2022-08-08T20:09:22.712Z,22.00
2022-08-08T20:12:14.077Z,22.00
2022-08-08T20:15:15.110Z,22.00
2022-08-08T20:18:15.407Z,22.00
2022-08-08T20:21:04.768Z,22.00
2022-08-08T20:23:58.034Z,22.10
2022-08-08T20:26:49.448Z,22.00
2022-08-08T20:29:55.424Z,21.90
2022-08-08T20:32:48.794Z,21.90
2022-08-08T20:35:56.850Z,21.80
2022-08-08T20:38:46.366Z,21.80
2022-08-08T20:41:39.159Z,21.70
2022-08-08T20:44:30.044Z,21.90
2022-08-08T20:47:23.724Z,21.90
2022-08-08T20:50:14.631Z,21.80
2022-08-08T20:53:03.420Z,21.70
2022-08-08T20:55:59.930Z,21.70
2022-08-08T20:58:49.558Z,21.70
2022-08-08T21:02:06.488Z,21.60
2022-08-08T21:04:47.709Z,21.70
2022-08-08T21:08:07.718Z,21.60
2022-08-08T21:10:52.419Z,21.50
2022-08-08T21:13:43.616Z,21.40
2022-08-08T21:16:32.149Z,21.50
2022-08-08T21:19:21.197Z,21.60
2022-08-08T21:22:12.694Z,21.60
2022-08-08T21:25:02.975Z,21.50
2022-08-08T21:28:09.742Z,21.40
2022-08-08T21:31:06.095Z,21.50
2022-08-08T21:34:10.471Z,21.40
2022-08-08T21:37:11.303Z,21.30
2022-08-08T21:40:07.797Z,21.40
2022-08-08T21:42:56.784Z,21.40
2022-08-08T21:48:08.620Z,21.40
2022-08-08T21:48:56.103Z,21.50
2022-08-08T21:54:18.662Z,21.50
2022-08-08T21:55:02.544Z,21.30
2022-08-08T21:58:05.735Z,21.30
2022-08-08T22:01:04.266Z,21.30
2022-08-08T22:03:53.353Z,21.30
2022-08-08T22:06:41.845Z,21.40
2022-08-08T22:09:37.215Z,21.30
2022-08-08T22:12:26.970Z,21.20
2022-08-08T22:15:16.906Z,21.10
2022-08-08T22:18:06.234Z,21.10
2022-08-08T22:21:14.584Z,21.10
2022-08-08T22:24:05.756Z,21.10
2022-08-08T22:27:02.607Z,21.30
2022-08-08T22:29:58.718Z,21.30
2022-08-08T22:32:51.690Z,21.20
2022-08-08T22:36:04.656Z,21.00
2022-08-08T22:38:50.997Z,20.90
2022-08-08T22:41:39.565Z,21.00
2022-08-08T22:44:28.377Z,20.80
2022-08-08T22:47:21.198Z,20.70
2022-08-08T22:50:26.836Z,20.60
2022-08-08T22:54:32.637Z,20.60
2022-08-08T22:56:24.726Z,20.50
2022-08-08T22:59:18.625Z,20.50
2022-08-08T23:02:12.759Z,20.50
2022-08-08T23:05:04.670Z,20.60
2022-08-08T23:07:57.822Z,20.50
2022-08-08T23:10:52.936Z,20.60
2022-08-08T23:13:53.641Z,20.70
2022-08-08T23:16:54.904Z,20.70
2022-08-08T23:19:48.875Z,20.80
2022-08-08T23:22:43.062Z,20.70
2022-08-08T23:25:45.091Z,20.60
2022-08-08T23:28:37.203Z,20.60
2022-08-08T23:31:25.739Z,20.60
2022-08-08T23:34:17.596Z,20.50
2022-08-08T23:37:07.754Z,20.40
2022-08-08T23:40:00.401Z,20.40
2022-08-08T23:42:51.393Z,20.50
2022-08-08T23:49:01.630Z,20.50
2022-08-08T23:49:05.981Z,20.40
2022-08-08T23:52:06.750Z,20.50
2022-08-08T23:55:07.596Z,20.60
2022-08-08T23:58:04.668Z,20.50
